Terminal Aerodrome Forecast
Issued by NWS Sioux Falls, SD

Home | Current Version | Previous Version | Text Only | Print | Product List | Glossary On
Versions: 1 2 3 4 5 6 7 8 9 10 11 12 13 14 15
000
FTUS43 KFSD 231526 AAA
TAFHON
TAF AMD
KHON 231526Z 2315/2412 14009KT P6SM OVC040
      TEMPO 2315/2317 -SHRA OVC025
     FM231700 14013KT P6SM OVC040
     FM232300 14011KT P6SM -SHRA OVC035
     FM240500 11009KT 6SM -SHRA OVC025=

USA.gov is the U.S. government's official web portal to all federal, state and local government web resources and services.